Date,TemperatureHighF,TemperatureAvgF,TemperatureLowF,DewpointHighF,DewpointAvgF,DewpointLowF,HumidityHigh,HumidityAvg,HumidityLow,PressureMaxIn,PressureMinIn,WindSpeedMaxMPH,WindSpeedAvgMPH,GustSpeedMaxMPH,PrecipitationSumIn
2013-1-1,57,46,37,44,33,26,81,61,38,30.05,29.96,8,0,8,0.04
2013-1-2,56,52,48,46,38,33,91,58,42,30.16,29.93,12,2,12,0.04
2013-1-3,60,51,46,39,35,32,72,54,36,30.37,30.16,7,1,7,0.00
2013-1-4,59,50,40,35,33,31,80,53,36,30.34,30.19,5,0,5,0.00
2013-1-5,56,45,40,38,36,33,86,72,45,30.19,29.99,6,1,6,0.00
2013-1-6,59,47,40,45,37,31,85,71,40,30.11,29.99,8,1,8,0.00
2013-1-7,60,47,43,45,39,33,86,73,38,30.11,29.96,7,1,7,0.00
2013-1-8,53,46,40,42,38,31,81,71,46,30.19,30.11,5,0,5,0.00
2013-1-9,52,48,46,41,39,34,78,71,51,30.11,30.02,4,0,4,0.00
2013-1-10,54,51,47,47,40,32,93,68,45,29.90,29.72,8,1,8,0.16
2013-1-11,56,48,42,47,40,31,98,79,45,29.75,29.57,17,2,17,0.16
2013-1-12,57,47,39,38,35,32,89,66,43,29.90,29.75,8,1,8,0.00
2013-1-13,56,51,48,49,43,35,94,73,55,29.90,29.63,23,3,23,1.46
2013-1-14,56,53,47,48,38,31,91,57,42,29.81,29.60,19,5,19,0.16
2013-1-15,48,46,44,39,32,30,76,58,50,29.81,29.46,13,2,13,0.08
2013-1-16,48,43,40,41,35,30,90,73,56,29.46,29.34,23,2,23,0.94
2013-1-17,50,42,38,40,34,29,83,71,50,29.34,29.19,25,2,25,0.31
2013-1-18,48,42,38,33,24,21,79,50,37,29.52,29.25,17,4,17,0.00
2013-1-19,35,35,34,25,25,25,68,68,67,29.52,29.52,4,0,4,0.00
2013-1-26,46,42,38,19,19,18,45,39,33,29.75,29.69,6,2,6,2.52
2013-1-27,54,41,34,28,22,18,60,47,36,29.87,29.75,9,1,9,0.00
2013-1-28,48,45,40,44,37,24,93,73,49,29.93,29.69,11,2,11,0.31
2013-1-29,56,46,40,42,35,29,87,67,36,30.14,29.93,6,1,6,0.31
2013-1-30,60,50,40,47,37,30,83,65,35,30.11,30.05,8,1,8,0.00
2013-1-31,66,55,47,47,41,36,80,62,35,30.08,30.02,9,1,9,0.00
2013-2-1,58,57,56,47,46,45,71,66,62,29.81,29.78,9,3,9,0.00
2013-2-2,62,56,51,50,45,27,87,66,38,29.60,29.16,28,6,28,2.87
2013-2-3,51,46,44,37,28,16,74,49,32,29.87,29.22,18,3,18,0.04
2013-2-4,56,45,37,28,19,14,57,36,25,30.02,29.84,9,2,9,0.00
2013-2-5,54,48,40,46,35,25,85,61,48,30.02,29.69,13,2,13,0.00
2013-2-6,56,51,44,43,29,21,76,45,28,29.54,29.40,25,4,25,1.06
2013-2-7,52,44,40,41,33,24,92,67,38,29.46,29.34,10,2,10,0.67
2013-2-8,52,45,39,28,21,15,60,40,29,29.63,29.46,11,3,11,0.00
2013-2-9,49,41,36,27,17,12,61,38,28,29.78,29.63,11,3,11,0.00
2013-2-10,49,42,32,17,12,8,52,30,21,29.84,29.75,9,2,9,0.00
2013-2-11,54,50,38,46,38,11,92,63,33,29.84,29.43,25,6,25,1.38
2013-2-12,55,50,42,44,36,29,93,61,37,29.57,29.46,8,1,8,0.04
2013-2-13,48,42,39,39,32,22,85,69,36,29.72,29.57,6,1,6,0.00
2013-2-14,56,44,37,27,26,24,65,50,29,29.87,29.72,8,2,8,0.00
2013-2-15,56,44,37,30,28,25,74,55,32,29.90,29.81,6,0,6,0.00
2013-2-16,58,49,40,35,29,25,68,48,28,29.96,29.87,8,2,8,0.00
2013-2-17,53,42,39,35,29,26,75,59,41,29.96,29.87,6,0,6,0.08
2013-2-18,54,45,38,35,32,25,83,63,37,29.90,29.81,8,1,8,0.00
2013-2-19,56,50,36,26,23,20,68,35,26,29.90,29.81,8,2,8,0.00
2013-2-20,56,45,36,29,26,22,63,48,31,29.90,29.78,11,1,11,0.00
2013-2-21,58,47,37,42,29,25,76,52,29,29.81,29.57,10,1,10,0.00
2013-2-22,57,52,48,47,41,33,81,67,44,29.57,29.34,13,3,13,0.04
2013-2-23,56,52,41,53,43,26,94,73,40,29.52,29.28,21,5,21,4.84
2013-2-24,49,44,39,33,25,17,68,48,29,29.81,29.52,23,4,23,0.83
2013-2-25,44,41,39,37,32,22,85,69,45,29.93,29.81,13,2,13,0.39
2013-2-26,44,41,38,34,32,30,79,70,59,30.02,29.93,6,1,6,0.00
2013-2-27,47,40,38,34,31,22,77,70,37,30.11,30.02,5,0,5,0.00
2013-2-28,60,48,38,32,27,23,63,45,27,30.11,30.02,10,2,10,0.00
2013-3-1,56,50,44,32,28,25,60,42,32,30.02,29.75,6,1,6,0.00
2013-3-2,63,51,49,32,30,19,51,45,25,29.90,29.69,9,2,9,0.00
2013-3-3,63,51,41,39,27,19,68,40,29,29.96,29.87,13,2,13,0.00
2013-3-4,50,49,48,39,35,34,68,59,54,30.08,29.93,4,0,4,0.00
2013-3-5,60,51,43,35,30,22,72,47,26,30.08,29.90,10,1,10,0.00
2013-3-6,57,56,52,55,54,28,96,93,40,29.93,29.60,12,4,12,0.24
2013-3-7,64,59,56,56,50,43,93,74,48,29.63,29.60,8,2,8,0.00
2013-3-8,60,58,55,53,48,44,85,70,56,29.63,29.54,17,3,17,0.08
2013-3-9,67,59,54,54,45,32,95,63,28,29.66,29.57,15,3,15,0.04
2013-3-10,55,53,52,52,50,46,91,87,76,29.49,29.46,9,0,9,0.08
2013-3-11,63,54,49,52,43,33,92,67,36,29.52,29.43,20,3,20,0.47
2013-3-12,60,50,49,48,44,37,94,79,46,29.49,29.40,17,2,17,0.28
2013-3-14,58,52,44,45,31,21,92,50,28,29.19,29.01,17,3,17,0.04
2013-3-15,56,48,41,22,20,16,44,34,25,29.60,29.19,12,2,12,0.00
2013-3-16,56,48,39,22,19,14,41,32,25,29.99,29.90,12,2,12,0.00
2013-3-17,54,48,42,27,25,21,50,40,33,29.99,29.75,13,3,13,0.00
2013-3-18,58,55,52,41,35,31,53,48,38,29.57,29.43,20,7,20,0.35
2013-3-19,61,56,51,35,32,30,52,41,34,29.69,29.57,17,6,17,0.20
2013-3-20,58,53,44,44,34,27,78,50,31,29.66,29.54,10,2,10,0.24
2013-3-21,63,58,48,35,26,24,60,31,24,29.84,29.69,12,4,13,0.08
2013-3-22,66,55,43,40,30,22,67,42,20,29.84,29.75,14,2,14,0.00
2013-3-23,64,59,53,44,37,33,66,44,34,29.81,29.69,13,3,13,0.00
2013-3-24,72,63,58,36,31,26,42,31,19,29.43,29.34,15,2,15,0.00
2013-3-25,60,56,51,53,42,28,95,62,37,29.40,29.19,12,2,15,0.98
2013-3-26,52,51,50,49,47,45,91,86,80,29.49,29.46,6,2,6,0.98
2013-3-27,64,54,47,46,41,30,86,65,30,29.72,29.49,13,2,13,0.00
2013-3-28,60,54,52,51,44,40,89,71,59,29.75,29.69,13,1,13,0.08
2013-3-29,61,58,56,51,48,42,83,71,51,29.75,29.63,12,4,12,0.00
2013-3-30,63,58,57,53,44,40,82,59,48,29.66,29.37,22,4,22,0.75
2013-3-31,62,58,55,44,36,34,57,45,38,29.57,29.43,27,8,27,2.24
2013-4-1,64,56,50,49,36,31,84,49,31,29.60,29.40,15,4,15,0.12
2013-4-2,61,56,52,55,51,42,96,83,58,29.46,29.31,13,3,13,0.98
2013-4-3,64,56,50,49,38,28,88,55,28,29.66,29.46,11,2,11,0.00
2013-4-4,66,57,47,40,35,27,70,46,23,29.69,29.40,13,2,13,0.00
2013-4-5,63,58,54,55,44,27,93,65,26,29.49,29.34,20,5,20,0.08
2013-4-6,69,58,48,46,41,33,82,56,29,29.69,29.60,14,1,14,0.08
2013-4-7,69,62,51,47,34,21,75,38,24,29.66,29.52,15,3,15,0.00
2013-4-8,58,52,47,41,28,20,60,40,27,29.75,29.66,8,3,8,0.00
2013-4-9,65,59,53,48,40,30,80,54,29,29.81,29.72,17,4,17,0.00
2013-4-10,67,61,54,46,40,32,70,48,35,29.90,29.75,15,4,15,0.00
2013-4-11,67,56,50,44,40,28,79,57,25,29.90,29.87,13,1,13,0.00
2013-4-12,58,57,56,50,46,39,78,67,54,29.90,29.84,11,3,11,0.00
2013-4-20,64,61,54,37,34,33,51,36,33,29.90,29.90,14,4,14,0.28
2013-4-21,66,58,52,44,35,27,69,45,25,29.93,29.81,17,4,17,0.00
2013-4-22,58,54,49,49,44,33,81,69,40,29.84,29.78,6,1,13,0.39
2013-4-23,68,61,51,50,38,31,86,46,26,30.14,29.96,9,1,12,0.39
2013-4-24,80,65,54,44,37,31,64,39,20,30.19,30.14,8,2,8,0.39
2013-4-25,82,69,60,44,38,34,55,34,20,30.16,29.99,11,2,11,0.39
2013-4-26,70,65,59,55,45,39,70,49,34,30.02,29.84,9,1,10,0.00
2013-4-27,66,61,55,56,48,43,84,63,44,29.84,29.66,19,3,19,0.04
2013-4-28,80,77,62,54,38,36,75,26,21,29.81,29.66,13,4,13,0.00
2013-4-29,87,74,64,50,40,31,57,32,18,29.90,29.84,12,2,12,0.00
2013-4-30,88,75,67,40,36,30,34,25,18,29.96,29.87,18,3,18,0.00
2013-5-1,81,72,65,52,40,33,64,35,21,29.93,29.87,10,3,10,0.04
2013-5-2,73,65,62,60,52,43,91,63,34,29.90,29.78,9,2,9,0.20
2013-5-3,83,70,58,52,44,37,77,44,21,29.84,29.75,11,2,11,0.00
2013-5-4,85,69,63,52,47,37,66,47,20,29.84,29.78,5,0,6,0.00
2013-5-5,72,66,63,58,51,39,81,60,34,29.90,29.84,10,1,10,0.24
2013-5-6,66,62,59,62,56,53,95,83,70,29.84,29.75,14,1,14,0.79
2013-5-12,73,69,62,50,43,32,65,40,32,29.78,29.72,16,4,16,0.00
2013-5-13,75,66,57,50,38,27,71,40,18,29.87,29.78,14,3,14,0.08
2013-5-14,78,65,55,52,34,30,70,34,21,29.90,29.75,14,2,14,0.00
2013-5-15,72,64,57,52,43,35,72,48,27,29.75,29.57,19,2,19,0.00
2013-5-16,76,60,61,100,50,37,74,45,29,29.57,29.43,13,3,17,7.26
2013-5-17,69,64,59,58,48,34,82,57,29,29.81,29.46,17,3,17,0.35
2013-5-18,80,69,57,47,41,33,67,40,20,29.87,29.69,15,2,15,0.00
2013-5-19,71,67,60,54,40,32,70,40,25,29.96,29.69,17,5,17,0.00
2013-5-20,69,60,57,47,45,34,69,59,29,29.99,29.93,6,2,8,0.00
2013-5-22,61,61,60,58,56,52,90,84,72,29.37,29.31,8,2,8,0.31
2013-5-23,68,62,57,59,47,38,95,60,35,29.57,29.34,11,2,12,0.35
2013-5-24,66,63,58,52,37,30,80,41,27,29.75,29.54,26,6,26,9.02
2013-5-25,66,59,54,37,33,28,48,38,27,29.78,29.69,28,5,28,8.35
2013-5-26,67,59,51,44,35,30,65,42,27,29.90,29.72,13,3,13,0.00
2013-5-27,70,62,54,45,39,26,66,44,20,29.90,29.81,15,4,15,0.00
2013-5-28,78,66,58,48,40,31,68,42,21,29.81,29.57,13,2,13,0.00
2013-5-29,69,63,58,53,43,31,74,51,25,29.66,29.60,19,4,19,0.00
2013-5-30,66,60,54,49,40,34,74,50,34,29.66,29.60,21,5,21,0.75
2013-5-31,67,60,53,49,42,35,80,53,34,29.66,29.60,22,5,22,0.47
2013-6-1,69,61,57,58,46,38,94,59,34,29.69,29.57,14,2,14,0.35
2013-6-2,74,61,56,57,51,40,91,73,32,29.84,29.66,14,1,14,0.00
2013-6-3,76,65,57,56,48,36,91,60,31,29.84,29.78,14,2,14,0.00
2013-6-4,76,66,59,58,50,41,85,59,30,29.90,29.81,16,2,16,0.08
2013-6-5,78,68,60,59,50,37,90,56,27,29.93,29.87,15,2,15,0.04
2013-6-6,81,69,60,55,46,38,82,46,24,29.96,29.87,14,2,14,0.00
2013-6-7,84,72,63,52,44,38,62,39,23,29.90,29.84,13,2,13,0.00
2013-6-8,83,72,63,56,47,40,75,45,23,29.87,29.81,15,2,15,0.00
2013-6-9,79,70,63,58,48,33,78,49,23,29.84,29.72,17,3,17,0.00
2013-6-10,74,69,64,60,48,38,85,51,30,29.78,29.72,16,3,16,0.00
2013-6-11,77,70,62,53,46,40,69,45,29,29.84,29.75,14,2,14,0.00
2013-6-12,88,76,63,53,42,32,67,35,16,29.90,29.81,13,2,13,0.00
2013-6-13,88,72,66,40,36,31,34,27,15,29.93,29.81,9,2,9,0.00
2013-6-14,88,76,66,44,39,34,37,27,19,29.93,29.87,16,2,16,0.00
2013-6-15,87,76,66,57,49,43,71,41,23,29.96,29.90,13,2,13,0.00
2013-6-16,88,78,67,54,48,42,62,37,22,29.96,29.90,13,2,13,0.00
2013-6-22,82,79,77,46,44,39,31,28,22,29.93,29.90,12,4,12,0.00
2013-7-8,75,73,71,58,57,55,61,57,55,29.99,29.96,4,0,4,0.59
2013-7-9,76,71,66,60,54,47,77,57,37,29.99,29.87,6,1,6,0.00
2013-7-10,89,77,66,61,51,42,70,44,20,29.87,29.75,13,2,15,0.00
2013-7-11,89,78,69,61,53,44,71,45,24,29.84,29.75,13,2,13,0.00
2013-7-12,89,80,70,64,52,42,70,41,20,29.90,29.81,13,2,13,0.00
2013-7-13,88,79,69,66,54,44,82,45,23,29.93,29.87,17,2,17,0.00
2013-7-14,90,80,70,64,53,43,76,43,21,29.90,29.84,12,2,12,0.00
2013-7-15,91,80,71,59,51,43,60,39,20,29.90,29.87,14,2,14,0.00
2013-7-16,90,80,71,62,49,40,68,36,20,29.96,29.90,15,2,15,0.00
2013-7-17,92,81,72,62,51,40,62,38,17,29.96,29.87,15,3,15,0.00
2013-7-18,89,80,72,65,55,48,76,45,27,29.96,29.90,17,3,17,0.00
2013-7-19,86,76,71,66,55,47,73,49,29,29.96,29.87,14,2,14,0.00
2013-7-20,89,77,67,61,52,40,76,46,19,29.90,29.81,12,2,12,0.00
2013-7-21,93,76,65,65,54,41,92,51,18,29.90,29.81,21,2,21,1.50
2013-7-22,93,78,66,66,52,40,76,44,17,29.90,29.81,14,2,14,0.00
2013-7-23,94,82,70,67,54,40,73,44,16,29.87,29.78,14,2,14,0.00
2013-7-24,95,82,72,69,54,41,87,45,18,29.93,29.84,13,2,13,0.00
2013-7-25,92,82,72,66,55,45,72,43,22,29.93,29.87,12,2,12,0.00
2013-7-26,93,86,79,55,48,42,43,27,19,29.87,29.84,13,3,13,0.00
2013-7-27,99,85,75,60,52,42,59,35,17,29.87,29.81,13,2,13,0.00
2013-7-28,98,86,74,60,49,42,56,31,16,29.93,29.84,12,2,12,0.00
2013-7-29,95,85,74,73,51,37,80,36,14,29.93,29.87,15,4,15,0.00
2013-7-30,93,83,76,73,50,36,83,36,14,29.90,29.81,13,3,13,0.00
2013-7-31,93,80,74,54,42,39,42,26,16,29.87,29.78,13,2,13,0.00
2013-8-1,97,82,74,54,42,36,46,25,14,29.87,29.84,13,3,13,0.00
2013-8-2,95,83,73,56,48,42,47,31,17,29.93,29.87,13,2,13,0.00
2013-8-3,98,85,74,56,47,39,52,30,17,29.93,29.90,14,2,14,0.00
2013-8-4,100,87,75,51,46,37,39,26,13,29.96,29.87,12,2,12,0.00
2013-8-5,101,86,74,48,43,36,35,23,12,29.93,29.84,12,1,12,0.00
2013-8-6,99,87,76,55,44,40,41,23,16,29.87,29.84,12,2,12,0.00
2013-8-7,101,86,74,57,46,36,54,28,13,29.84,29.78,12,2,12,0.00
2013-8-8,100,88,75,46,40,32,32,20,10,29.87,29.81,14,2,14,0.00
2013-8-9,92,81,74,57,44,32,57,28,16,29.84,29.72,17,2,17,0.04
2013-8-10,93,83,71,55,45,39,52,29,17,29.81,29.69,13,2,13,0.00
2013-8-11,92,81,72,54,44,40,44,29,17,29.84,29.78,15,2,16,0.00
2013-8-12,94,82,71,52,42,36,44,27,15,29.90,29.84,13,2,13,0.00
2013-8-13,91,81,70,55,44,39,49,29,17,29.90,29.84,14,2,14,0.00
2013-8-14,89,76,70,63,52,40,66,46,19,29.87,29.81,13,1,13,0.00
2013-8-15,94,81,72,64,48,41,67,34,17,29.90,29.81,13,2,13,0.00
2013-8-16,91,81,71,54,46,41,44,30,20,29.93,29.87,14,3,14,0.00
2013-8-17,93,81,71,55,46,38,48,32,17,29.93,29.87,13,2,13,0.00
2013-8-18,91,80,70,64,48,40,67,36,18,29.96,29.90,13,2,13,0.00
2013-8-19,92,80,70,66,54,40,76,46,18,29.93,29.84,15,2,15,0.00
2013-8-20,85,76,71,66,55,43,78,51,25,29.87,29.81,17,2,17,0.00
2013-8-21,74,74,74,50,50,50,43,43,43,29.81,29.81,0,0,4,0.00
2013-8-22,80,77,74,58,52,47,53,43,32,29.87,29.81,8,2,8,0.20
2013-8-23,91,82,68,55,45,39,52,29,19,29.87,29.84,15,2,15,0.00
2013-8-24,89,78,69,62,52,44,63,42,22,29.90,29.78,13,2,13,0.00
2013-8-25,83,75,67,70,61,50,96,65,34,29.81,29.66,17,4,17,1.69
2013-8-26,84,76,69,65,56,47,81,52,32,29.78,29.69,15,3,15,0.12
2013-8-27,82,73,68,68,60,49,96,67,34,29.75,29.69,17,2,17,1.65
2013-8-28,82,74,68,64,54,45,82,53,29,29.87,29.72,12,2,12,0.00
2013-8-29,85,75,67,60,53,41,73,49,22,29.93,29.84,12,2,12,0.00
2013-8-30,85,76,67,61,52,44,71,46,24,29.93,29.87,12,2,12,0.00
2013-8-31,84,75,67,58,52,44,65,45,29,29.93,29.84,13,2,13,0.00
2013-9-1,85,75,66,59,46,37,70,38,20,29.96,29.87,13,1,13,0.00
2013-9-2,87,76,66,56,48,38,65,40,18,30.02,29.93,13,2,13,0.00
2013-9-3,88,77,68,56,49,42,56,39,20,30.08,30.02,13,2,13,0.00
2013-9-4,91,78,68,59,48,39,67,39,17,30.08,29.99,11,1,11,0.00
2013-9-5,91,78,68,56,47,39,51,35,17,29.99,29.84,17,2,17,0.00
2013-9-6,91,79,68,53,47,40,52,35,18,29.84,29.75,15,2,15,0.00
2013-9-7,91,78,69,62,51,41,66,42,18,29.99,29.84,9,2,11,0.00
2013-9-8,88,77,69,65,57,45,78,53,25,30.05,29.96,14,2,14,0.00
2013-9-9,85,76,71,67,56,42,81,53,29,30.02,29.93,18,4,18,0.00
2013-9-10,79,72,67,64,52,44,90,52,31,29.96,29.84,15,3,15,0.24
2013-9-11,78,72,66,64,53,43,90,56,31,29.90,29.81,17,4,17,0.12
2013-9-12,76,69,66,50,46,38,53,43,26,29.87,29.81,16,3,16,0.00
2013-9-13,81,70,61,49,44,35,64,41,20,29.99,29.84,11,2,11,0.00
2013-9-14,79,70,60,50,44,34,64,42,21,30.02,29.93,12,2,12,0.00
2013-9-15,72,67,63,65,56,45,92,70,42,29.96,29.72,17,2,17,0.35
2013-9-16,80,69,61,64,51,42,93,58,28,29.72,29.63,15,2,15,0.00
2013-9-17,77,69,64,57,47,34,69,48,22,29.63,29.49,16,4,16,0.16
2013-9-18,76,68,58,53,47,41,73,50,29,29.66,29.60,15,3,15,0.00
2013-9-19,79,70,63,56,51,44,78,54,32,29.72,29.57,13,2,13,0.00
2013-9-20,84,71,62,54,47,38,68,45,21,29.90,29.72,14,1,14,0.00
2013-9-21,84,72,63,56,48,38,69,45,21,29.99,29.90,13,1,13,0.00
2013-9-22,76,67,64,51,44,34,55,43,25,30.08,29.99,6,2,6,0.00
2013-9-23,79,69,61,50,39,33,60,35,22,30.05,29.96,13,2,13,0.00
2013-9-24,81,68,59,56,48,38,73,52,23,29.96,29.90,13,2,13,0.00
2013-9-25,80,69,59,54,49,40,74,52,25,29.93,29.87,13,2,13,0.00
2013-9-26,82,71,61,58,50,41,72,51,26,29.93,29.84,10,1,10,0.00
2013-9-27,83,71,63,58,50,37,77,53,21,29.90,29.81,10,1,10,0.00
2013-9-28,83,70,62,60,53,45,80,58,30,29.87,29.78,11,2,11,0.00
2013-9-29,69,69,0,59,59,0,70,70,70,29.81,29.66,16,2,16,0.00
2013-10-1,72,69,66,58,54,49,74,59,44,29.67,29.65,6,0,6,0.00
2013-10-2,80,69,61,58,49,39,80,53,23,29.94,29.67,13,1,13,0.00
2013-10-3,78,68,61,46,41,35,50,39,22,30.12,29.94,11,2,11,0.00
2013-10-4,75,67,60,53,43,38,66,44,27,30.15,30.09,9,2,9,0.00
2013-10-5,71,66,59,63,54,38,93,68,32,30.09,29.94,12,1,12,0.59
2013-10-6,77,69,64,62,57,46,92,68,35,29.94,29.85,14,2,14,0.12
2013-10-7,72,68,64,60,56,51,84,67,50,29.94,29.88,10,0,10,0.00
2013-10-8,69,69,69,55,55,55,60,60,60,29.97,29.91,13,2,13,0.20
2013-10-9,69,64,60,57,56,50,89,76,55,29.94,29.88,5,0,5,0.20
2013-10-10,68,63,57,62,57,49,93,81,50,29.91,29.73,11,2,11,0.08
2013-10-11,65,63,63,57,56,55,81,76,72,29.73,29.73,10,2,10,0.00
2013-10-12,76,67,63,61,55,48,87,68,40,29.97,29.73,13,2,13,0.00
2013-10-13,75,64,63,61,54,32,89,74,23,30.00,29.91,7,1,7,0.00
2013-10-14,80,67,58,42,37,27,52,35,17,29.99,29.93,8,1,8,0.00
2013-10-15,73,66,60,49,41,36,52,41,27,29.96,29.78,10,2,10,0.00
2013-10-16,76,70,63,54,42,30,68,39,21,29.78,29.57,13,3,13,0.00
2013-10-17,78,65,56,41,33,24,50,32,15,29.87,29.72,8,1,8,0.00
2013-10-18,76,60,55,47,36,30,54,41,20,29.96,29.84,10,1,10,0.00
2013-10-19,76,66,59,49,42,31,65,44,21,30.11,29.96,11,1,11,0.00
2013-10-20,78,66,58,47,38,33,51,37,22,30.14,30.08,9,1,9,0.00
2013-10-21,77,70,66,50,42,36,55,37,23,30.11,30.05,11,2,11,0.00
2013-10-22,78,68,62,53,45,35,63,46,22,30.08,29.99,11,1,11,0.00
2013-10-23,77,68,60,55,48,38,72,52,25,30.02,29.96,12,2,12,0.00
2013-10-24,73,66,62,52,47,40,65,51,32,30.02,29.96,8,1,8,0.00
2013-10-25,78,67,61,59,44,39,78,45,29,30.05,29.99,9,1,9,0.00
2013-10-26,80,68,60,59,47,35,80,51,21,30.08,30.02,8,1,8,0.00
2013-10-27,75,66,63,54,48,37,69,54,25,30.11,30.02,9,1,9,0.00
2013-10-28,76,68,62,56,47,40,67,49,28,30.05,29.90,12,2,12,0.00
2013-10-29,75,67,60,54,47,40,69,51,28,29.93,29.81,11,2,11,0.00
2013-10-30,74,66,60,51,45,36,66,48,25,29.90,29.78,8,1,8,0.00
2013-10-31,76,66,59,51,41,31,66,42,21,29.99,29.90,9,1,9,0.00
2013-11-1,75,65,58,43,38,31,54,39,21,30.02,29.93,10,2,10,0.00
2013-11-2,73,65,59,53,43,35,63,46,27,29.96,29.87,14,2,14,0.00
2013-11-3,72,67,63,53,46,35,68,47,26,29.90,29.78,18,4,18,0.08
2013-11-4,71,66,61,52,40,29,71,39,22,29.78,29.34,22,4,22,0.55
2013-11-5,69,62,57,54,43,28,80,54,23,29.43,29.25,11,2,11,0.71
2013-11-6,70,61,52,44,36,28,70,43,23,29.69,29.40,10,1,10,0.00
2013-11-7,0,0,0,0,0,0,0,0,100,29.96,29.93,6,1,6,0.00
2013-11-8,67,18,0,47,13,0,55,14,43,29.96,29.90,14,2,14,0.00
2013-11-9,72,66,61,48,42,35,56,43,29,29.90,29.81,17,3,17,0.00
2013-11-10,66,61,52,46,36,25,60,40,26,29.84,29.34,29,5,29,4.02
2013-11-11,58,54,51,41,30,22,64,40,27,29.57,29.25,17,5,17,0.31
2013-11-12,61,55,50,48,40,32,72,56,34,29.81,29.57,7,1,7,0.12
2013-11-13,66,60,51,45,37,32,74,45,30,29.81,29.72,6,1,6,0.00
2013-11-14,66,66,66,33,33,33,30,30,30,29.84,29.81,5,0,5,0.00
2013-11-16,66,62,59,41,35,29,48,37,26,29.87,29.81,6,0,6,0.59
2013-11-17,69,61,56,42,35,29,59,39,23,29.93,29.84,10,2,10,0.59
2013-11-18,67,60,53,42,32,27,62,38,24,29.87,29.49,10,1,10,0.59
2013-11-19,64,58,53,48,36,26,78,47,24,29.54,29.22,23,3,23,2.13
2013-11-20,62,55,49,51,36,23,82,54,25,29.54,29.10,24,2,24,1.26
2013-11-21,58,53,48,42,26,18,72,37,24,29.52,29.31,23,4,23,0.59
2013-11-22,53,50,48,42,34,24,73,56,35,29.34,29.19,9,1,10,0.59
2013-11-23,50,47,46,41,36,31,74,66,54,29.37,29.19,22,1,22,1.26
2013-11-24,54,48,45,36,29,22,65,49,29,29.52,29.34,6,1,6,0.59
2013-11-25,58,47,40,32,20,4,59,36,20,29.66,29.49,19,4,19,0.59
2013-11-26,48,41,37,14,9,5,32,27,22,29.78,29.66,17,5,17,0.59
2013-11-27,46,42,38,16,14,9,40,32,27,30.05,29.78,8,2,8,0.00
2013-11-28,48,41,34,40,19,13,87,43,27,30.08,29.99,10,3,10,0.00
2013-11-29,59,46,37,38,28,17,88,54,22,30.02,29.87,6,2,6,0.00
2013-11-30,59,46,36,38,28,18,93,54,25,29.87,29.63,6,1,6,0.00
2013-12-1,58,54,46,28,22,13,47,30,17,29.63,29.43,15,5,15,0.16
2013-12-2,72,59,53,40,29,19,48,33,14,29.93,29.52,14,3,14,0.00
2013-12-3,66,55,47,28,20,11,40,26,15,30.02,29.90,11,3,11,0.00
2013-12-4,63,50,40,42,26,11,89,43,20,30.05,29.99,7,2,7,0.00
2013-12-5,59,46,37,42,30,13,92,61,17,29.99,29.90,6,1,6,0.00
2013-12-6,58,49,40,35,31,21,81,53,25,29.93,29.75,6,1,8,0.00
2013-12-7,61,49,40,41,32,23,93,58,24,29.99,29.81,6,1,6,0.00
2013-12-8,62,55,52,47,41,30,79,61,31,30.19,30.11,8,1,8,0.00
2013-12-9,66,54,46,43,37,25,82,57,25,30.22,30.16,5,0,5,0.00
2013-12-10,60,49,41,41,34,24,93,60,27,30.28,30.19,6,1,6,0.00
2013-12-11,63,50,41,47,38,25,96,67,29,30.31,30.25,6,1,6,0.00
2013-12-12,59,50,43,46,40,30,98,73,38,30.28,30.14,6,1,6,0.00
2013-12-13,51,43,40,42,38,31,98,84,47,30.14,30.05,7,1,7,0.00
2013-12-14,54,46,38,42,37,28,98,74,40,30.19,30.11,8,1,8,0.00
2013-12-15,57,48,43,44,41,30,89,76,36,30.28,30.16,6,0,6,0.04
2013-12-16,60,47,38,37,30,18,87,58,22,30.31,30.22,7,1,7,0.00
2013-12-17,60,46,36,36,28,12,88,56,17,30.28,30.19,5,0,5,0.00
2013-12-18,60,45,35,40,28,12,92,57,19,30.19,30.05,6,1,6,0.00
2013-12-19,60,47,35,37,30,20,88,56,25,30.08,29.96,12,1,12,0.00
2013-12-20,57,54,52,51,43,32,94,68,41,30.25,29.93,9,1,9,0.00
2013-12-21,61,51,46,50,45,31,97,82,36,30.34,30.25,5,1,5,0.00
2013-12-22,60,50,45,46,42,32,97,75,38,30.31,30.19,5,0,5,0.00
2013-12-23,53,44,39,46,41,35,98,93,55,30.19,30.05,5,1,5,0.00
2013-12-24,57,44,38,42,37,27,98,83,37,30.05,29.96,6,1,6,0.00
2013-12-25,61,57,54,54,43,35,98,61,41,29.75,29.43,17,5,17,0.24
2013-12-26,57,54,48,57,45,30,98,75,38,29.43,29.16,27,6,27,3.03
2013-12-27,60,49,43,42,38,28,94,68,30,29.69,29.28,6,1,6,0.00
2013-12-28,50,44,41,43,40,26,97,88,40,29.81,29.69,5,1,5,0.00
2013-12-29,62,59,54,52,42,35,91,56,41,29.87,29.84,11,3,11,0.00
2013-12-30,54,49,49,51,44,40,95,84,70,29.96,29.87,6,0,6,0.20
2013-12-31,57,51,47,47,37,22,95,63,26,29.93,29.84,5,0,5,0.04
2014-1-1,57,50,43,29,23,20,55,36,25,29.93,29.84,6,0,6,0.00
2014-1-2,56,54,53,35,32,29,48,44,35,29.87,29.81,10,1,10,0.00